sensor_id;sensor_type;location;lat;lon;timestamp;pressure;altitude;pressure_sealevel;temperature
77414;BMP280;66486;49.992;19.164;2023-09-08T00:01:58;99685.97;;;14.35
77414;BMP280;66486;49.992;19.164;2023-09-08T00:04:24;99684.16;;;14.29
77414;BMP280;66486;49.992;19.164;2023-09-08T00:06:50;99688.00;;;14.31
77414;BMP280;66486;49.992;19.164;2023-09-08T00:09:16;99674.91;;;14.26
77414;BMP280;66486;49.992;19.164;2023-09-08T00:11:42;99676.69;;;14.17
77414;BMP280;66486;49.992;19.164;2023-09-08T00:14:08;99675.38;;;14.05
77414;BMP280;66486;49.992;19.164;2023-09-08T00:16:34;99671.88;;;14.04
77414;BMP280;66486;49.992;19.164;2023-09-08T00:19:00;99678.06;;;14.05
77414;BMP280;66486;49.992;19.164;2023-09-08T00:21:26;99673.06;;;14.03
77414;BMP280;66486;49.992;19.164;2023-09-08T00:23:52;99677.16;;;14.12
77414;BMP280;66486;49.992;19.164;2023-09-08T00:26:19;99676.91;;;14.06
77414;BMP280;66486;49.992;19.164;2023-09-08T00:28:45;99684.25;;;14.06
77414;BMP280;66486;49.992;19.164;2023-09-08T00:31:11;99679.06;;;13.95
77414;BMP280;66486;49.992;19.164;2023-09-08T00:33:37;99676.41;;;13.91
77414;BMP280;66486;49.992;19.164;2023-09-08T00:36:04;99674.56;;;13.85
77414;BMP280;66486;49.992;19.164;2023-09-08T00:38:30;99673.28;;;13.93
77414;BMP280;66486;49.992;19.164;2023-09-08T00:40:56;99663.28;;;13.90
77414;BMP280;66486;49.992;19.164;2023-09-08T00:43:22;99668.47;;;13.81
77414;BMP280;66486;49.992;19.164;2023-09-08T00:45:48;99663.25;;;13.70
77414;BMP280;66486;49.992;19.164;2023-09-08T00:48:14;99662.19;;;13.64
77414;BMP280;66486;49.992;19.164;2023-09-08T00:50:40;99660.97;;;13.69
77414;BMP280;66486;49.992;19.164;2023-09-08T00:53:07;99654.50;;;13.63
77414;BMP280;66486;49.992;19.164;2023-09-08T00:55:34;99660.09;;;13.75
77414;BMP280;66486;49.992;19.164;2023-09-08T00:58:01;99664.38;;;13.73
77414;BMP280;66486;49.992;19.164;2023-09-08T01:00:27;99655.56;;;13.69
77414;BMP280;66486;49.992;19.164;2023-09-08T01:02:53;99651.69;;;13.70
77414;BMP280;66486;49.992;19.164;2023-09-08T01:05:20;99637.75;;;13.48
77414;BMP280;66486;49.992;19.164;2023-09-08T01:07:47;99653.50;;;13.53
77414;BMP280;66486;49.992;19.164;2023-09-08T01:10:14;99643.25;;;13.45
77414;BMP280;66486;49.992;19.164;2023-09-08T01:12:41;99640.25;;;13.39
77414;BMP280;66486;49.992;19.164;2023-09-08T01:15:07;99642.19;;;13.39
77414;BMP280;66486;49.992;19.164;2023-09-08T01:17:34;99641.72;;;13.44
77414;BMP280;66486;49.992;19.164;2023-09-08T01:20:17;99634.53;;;13.57
77414;BMP280;66486;49.992;19.164;2023-09-08T01:23:18;99650.44;;;13.74
77414;BMP280;66486;49.992;19.164;2023-09-08T01:25:53;99652.88;;;13.69
77414;BMP280;66486;49.992;19.164;2023-09-08T01:28:21;99653.81;;;13.59
77414;BMP280;66486;49.992;19.164;2023-09-08T01:30:50;99655.50;;;13.49
77414;BMP280;66486;49.992;19.164;2023-09-08T01:33:17;99655.91;;;13.51
77414;BMP280;66486;49.992;19.164;2023-09-08T01:35:43;99654.53;;;13.59
77414;BMP280;66486;49.992;19.164;2023-09-08T01:38:09;99654.06;;;13.64
77414;BMP280;66486;49.992;19.164;2023-09-08T01:40:36;99661.78;;;13.66
77414;BMP280;66486;49.992;19.164;2023-09-08T01:43:02;99658.28;;;13.69
77414;BMP280;66486;49.992;19.164;2023-09-08T01:45:28;99662.63;;;13.63
77414;BMP280;66486;49.992;19.164;2023-09-08T01:47:54;99653.59;;;13.50
77414;BMP280;66486;49.992;19.164;2023-09-08T01:50:20;99659.28;;;13.55
77414;BMP280;66486;49.992;19.164;2023-09-08T01:52:48;99654.75;;;13.49
77414;BMP280;66486;49.992;19.164;2023-09-08T01:55:14;99668.03;;;13.40
77414;BMP280;66486;49.992;19.164;2023-09-08T01:57:42;99658.75;;;13.41
77414;BMP280;66486;49.992;19.164;2023-09-08T02:00:10;99655.09;;;13.27
77414;BMP280;66486;49.992;19.164;2023-09-08T02:02:36;99651.22;;;13.28
77414;BMP280;66486;49.992;19.164;2023-09-08T02:05:02;99658.22;;;13.26
77414;BMP280;66486;49.992;19.164;2023-09-08T02:07:28;99662.94;;;13.22
77414;BMP280;66486;49.992;19.164;2023-09-08T02:09:54;99662.44;;;13.27
77414;BMP280;66486;49.992;19.164;2023-09-08T02:12:21;99662.81;;;13.29
77414;BMP280;66486;49.992;19.164;2023-09-08T02:14:47;99664.50;;;13.19
77414;BMP280;66486;49.992;19.164;2023-09-08T02:17:13;99653.34;;;13.17
77414;BMP280;66486;49.992;19.164;2023-09-08T02:19:39;99663.03;;;13.15
77414;BMP280;66486;49.992;19.164;2023-09-08T02:22:05;99663.84;;;13.12
77414;BMP280;66486;49.992;19.164;2023-09-08T02:24:31;99660.00;;;13.13
77414;BMP280;66486;49.992;19.164;2023-09-08T02:26:57;99659.09;;;13.19
77414;BMP280;66486;49.992;19.164;2023-09-08T02:29:23;99651.47;;;13.14
77414;BMP280;66486;49.992;19.164;2023-09-08T02:31:49;99648.75;;;13.14
77414;BMP280;66486;49.992;19.164;2023-09-08T02:34:15;99647.94;;;13.17
77414;BMP280;66486;49.992;19.164;2023-09-08T02:36:41;99653.63;;;13.23
77414;BMP280;66486;49.992;19.164;2023-09-08T02:39:07;99648.41;;;13.12
77414;BMP280;66486;49.992;19.164;2023-09-08T02:41:33;99647.22;;;13.13
77414;BMP280;66486;49.992;19.164;2023-09-08T02:44:00;99651.56;;;13.07
77414;BMP280;66486;49.992;19.164;2023-09-08T02:46:25;99643.00;;;13.12
77414;BMP280;66486;49.992;19.164;2023-09-08T02:48:52;99648.13;;;13.07
77414;BMP280;66486;49.992;19.164;2023-09-08T02:51:18;99640.72;;;13.11
77414;BMP280;66486;49.992;19.164;2023-09-08T02:53:44;99642.00;;;13.03
77414;BMP280;66486;49.992;19.164;2023-09-08T02:56:10;99649.31;;;13.02
77414;BMP280;66486;49.992;19.164;2023-09-08T02:58:36;99652.38;;;13.04
77414;BMP280;66486;49.992;19.164;2023-09-08T03:01:16;99648.56;;;13.02
77414;BMP280;66486;49.992;19.164;2023-09-08T03:03:46;99649.81;;;12.94
77414;BMP280;66486;49.992;19.164;2023-09-08T03:06:17;99649.28;;;13.06
77414;BMP280;66486;49.992;19.164;2023-09-08T03:08:44;99644.13;;;13.15
77414;BMP280;66486;49.992;19.164;2023-09-08T03:11:10;99633.72;;;13.13
77414;BMP280;66486;49.992;19.164;2023-09-08T03:13:36;99624.63;;;13.04
77414;BMP280;66486;49.992;19.164;2023-09-08T03:16:05;99635.59;;;12.93
77414;BMP280;66486;49.992;19.164;2023-09-08T03:18:33;99624.06;;;12.89
77414;BMP280;66486;49.992;19.164;2023-09-08T03:20:59;99627.94;;;12.88
77414;BMP280;66486;49.992;19.164;2023-09-08T03:23:27;99621.00;;;12.87
77414;BMP280;66486;49.992;19.164;2023-09-08T03:25:53;99627.59;;;12.86
77414;BMP280;66486;49.992;19.164;2023-09-08T03:28:19;99624.41;;;12.91
77414;BMP280;66486;49.992;19.164;2023-09-08T03:30:45;99618.56;;;12.96
77414;BMP280;66486;49.992;19.164;2023-09-08T03:33:11;99613.03;;;13.03
77414;BMP280;66486;49.992;19.164;2023-09-08T03:35:37;99614.66;;;12.97
77414;BMP280;66486;49.992;19.164;2023-09-08T03:38:03;99616.25;;;12.95
77414;BMP280;66486;49.992;19.164;2023-09-08T03:40:29;99611.63;;;12.95
77414;BMP280;66486;49.992;19.164;2023-09-08T03:42:55;99614.94;;;13.06
77414;BMP280;66486;49.992;19.164;2023-09-08T03:45:21;99604.91;;;13.07
77414;BMP280;66486;49.992;19.164;2023-09-08T03:47:47;99610.16;;;13.14
77414;BMP280;66486;49.992;19.164;2023-09-08T03:50:13;99610.63;;;13.09
77414;BMP280;66486;49.992;19.164;2023-09-08T03:52:39;99613.63;;;13.14
77414;BMP280;66486;49.992;19.164;2023-09-08T03:55:05;99609.94;;;13.05
77414;BMP280;66486;49.992;19.164;2023-09-08T03:57:31;99610.47;;;12.96
77414;BMP280;66486;49.992;19.164;2023-09-08T03:59:57;99618.78;;;13.05
77414;BMP280;66486;49.992;19.164;2023-09-08T04:02:23;99615.06;;;12.99
77414;BMP280;66486;49.992;19.164;2023-09-08T04:04:49;99614.66;;;12.97
77414;BMP280;66486;49.992;19.164;2023-09-08T04:07:15;99614.59;;;13.01
77414;BMP280;66486;49.992;19.164;2023-09-08T04:09:41;99615.31;;;13.05
77414;BMP280;66486;49.992;19.164;2023-09-08T04:12:08;99617.28;;;13.01
77414;BMP280;66486;49.992;19.164;2023-09-08T04:14:36;99608.00;;;13.05
77414;BMP280;66486;49.992;19.164;2023-09-08T04:17:02;99617.38;;;13.20
77414;BMP280;66486;49.992;19.164;2023-09-08T04:19:28;99610.69;;;13.05
77414;BMP280;66486;49.992;19.164;2023-09-08T04:21:54;99613.81;;;13.04
77414;BMP280;66486;49.992;19.164;2023-09-08T04:24:20;99614.94;;;13.06
77414;BMP280;66486;49.992;19.164;2023-09-08T04:26:46;99630.81;;;13.01
77414;BMP280;66486;49.992;19.164;2023-09-08T04:29:12;99629.38;;;12.96
77414;BMP280;66486;49.992;19.164;2023-09-08T04:31:38;99629.47;;;12.89
77414;BMP280;66486;49.992;19.164;2023-09-08T04:34:04;99624.53;;;12.84
77414;BMP280;66486;49.992;19.164;2023-09-08T04:36:30;99631.75;;;12.91
77414;BMP280;66486;49.992;19.164;2023-09-08T04:38:56;99641.22;;;13.02
77414;BMP280;66486;49.992;19.164;2023-09-08T04:41:22;99625.78;;;13.03
77414;BMP280;66486;49.992;19.164;2023-09-08T04:43:48;99625.41;;;13.01
77414;BMP280;66486;49.992;19.164;2023-09-08T04:46:14;99632.06;;;12.96
77414;BMP280;66486;49.992;19.164;2023-09-08T04:48:40;99623.53;;;12.98
77414;BMP280;66486;49.992;19.164;2023-09-08T04:51:08;99623.91;;;13.00
77414;BMP280;66486;49.992;19.164;2023-09-08T04:53:33;99627.72;;;13.02
77414;BMP280;66486;49.992;19.164;2023-09-08T04:56:02;99624.19;;;13.05
77414;BMP280;66486;49.992;19.164;2023-09-08T04:58:28;99625.00;;;13.02
77414;BMP280;66486;49.992;19.164;2023-09-08T05:00:54;99617.75;;;12.99
77414;BMP280;66486;49.992;19.164;2023-09-08T05:03:20;99621.44;;;13.09
77414;BMP280;66486;49.992;19.164;2023-09-08T05:05:46;99619.84;;;13.11
77414;BMP280;66486;49.992;19.164;2023-09-08T05:08:12;99628.91;;;13.24
77414;BMP280;66486;49.992;19.164;2023-09-08T05:10:38;99623.66;;;13.14
77414;BMP280;66486;49.992;19.164;2023-09-08T05:13:04;99630.13;;;13.20
77414;BMP280;66486;49.992;19.164;2023-09-08T05:15:30;99631.38;;;13.39
77414;BMP280;66486;49.992;19.164;2023-09-08T05:17:56;99631.34;;;13.62
77414;BMP280;66486;49.992;19.164;2023-09-08T05:20:23;99636.56;;;13.72
77414;BMP280;66486;49.992;19.164;2023-09-08T05:22:48;99632.38;;;13.68
77414;BMP280;66486;49.992;19.164;2023-09-08T05:25:15;99630.84;;;13.67
77414;BMP280;66486;49.992;19.164;2023-09-08T05:27:40;99640.13;;;13.69
77414;BMP280;66486;49.992;19.164;2023-09-08T05:30:07;99635.50;;;13.66
77414;BMP280;66486;49.992;19.164;2023-09-08T05:32:33;99635.75;;;13.75
77414;BMP280;66486;49.992;19.164;2023-09-08T05:34:59;99625.59;;;13.79
77414;BMP280;66486;49.992;19.164;2023-09-08T05:37:25;99637.47;;;13.85
77414;BMP280;66486;49.992;19.164;2023-09-08T05:39:51;99636.63;;;13.88
77414;BMP280;66486;49.992;19.164;2023-09-08T05:42:17;99638.09;;;13.93
77414;BMP280;66486;49.992;19.164;2023-09-08T05:44:43;99646.84;;;14.00
77414;BMP280;66486;49.992;19.164;2023-09-08T05:47:10;99644.28;;;14.13
77414;BMP280;66486;49.992;19.164;2023-09-08T05:49:36;99646.00;;;14.23
77414;BMP280;66486;49.992;19.164;2023-09-08T05:52:02;99646.25;;;14.29
77414;BMP280;66486;49.992;19.164;2023-09-08T05:54:29;99648.06;;;14.35
77414;BMP280;66486;49.992;19.164;2023-09-08T05:56:55;99643.19;;;14.46
77414;BMP280;66486;49.992;19.164;2023-09-08T05:59:21;99649.38;;;14.63
77414;BMP280;66486;49.992;19.164;2023-09-08T06:01:47;99642.63;;;14.71
77414;BMP280;66486;49.992;19.164;2023-09-08T06:04:13;99638.75;;;14.72
77414;BMP280;66486;49.992;19.164;2023-09-08T06:06:39;99648.72;;;14.91
77414;BMP280;66486;49.992;19.164;2023-09-08T06:09:05;99659.41;;;14.98
77414;BMP280;66486;49.992;19.164;2023-09-08T06:11:33;99656.19;;;15.03
77414;BMP280;66486;49.992;19.164;2023-09-08T06:14:00;99656.19;;;15.03
77414;BMP280;66486;49.992;19.164;2023-09-08T06:16:26;99646.28;;;15.29
77414;BMP280;66486;49.992;19.164;2023-09-08T06:18:52;99650.50;;;15.30
77414;BMP280;66486;49.992;19.164;2023-09-08T06:21:18;99644.22;;;15.49
77414;BMP280;66486;49.992;19.164;2023-09-08T06:23:44;99644.94;;;15.49
77414;BMP280;66486;49.992;19.164;2023-09-08T06:26:10;99656.00;;;15.71
77414;BMP280;66486;49.992;19.164;2023-09-08T06:28:37;99649.53;;;15.81
77414;BMP280;66486;49.992;19.164;2023-09-08T06:31:04;99648.47;;;15.91
77414;BMP280;66486;49.992;19.164;2023-09-08T06:33:30;99644.59;;;16.05
77414;BMP280;66486;49.992;19.164;2023-09-08T06:35:56;99646.31;;;16.11
77414;BMP280;66486;49.992;19.164;2023-09-08T06:38:22;99646.78;;;16.22
77414;BMP280;66486;49.992;19.164;2023-09-08T06:40:48;99650.06;;;16.30
77414;BMP280;66486;49.992;19.164;2023-09-08T06:43:15;99655.72;;;16.36
77414;BMP280;66486;49.992;19.164;2023-09-08T06:45:41;99648.56;;;16.42
77414;BMP280;66486;49.992;19.164;2023-09-08T06:48:07;99651.16;;;16.58
77414;BMP280;66486;49.992;19.164;2023-09-08T06:50:33;99650.59;;;16.63
77414;BMP280;66486;49.992;19.164;2023-09-08T06:52:59;99653.97;;;16.67
77414;BMP280;66486;49.992;19.164;2023-09-08T06:55:26;99652.56;;;16.75
77414;BMP280;66486;49.992;19.164;2023-09-08T06:57:52;99655.50;;;16.80
77414;BMP280;66486;49.992;19.164;2023-09-08T07:00:18;99651.09;;;16.95
77414;BMP280;66486;49.992;19.164;2023-09-08T07:02:46;99652.19;;;16.98
77414;BMP280;66486;49.992;19.164;2023-09-08T07:05:12;99652.78;;;17.15
77414;BMP280;66486;49.992;19.164;2023-09-08T07:07:38;99654.06;;;17.35
77414;BMP280;66486;49.992;19.164;2023-09-08T07:10:04;99664.34;;;17.40
77414;BMP280;66486;49.992;19.164;2023-09-08T07:12:30;99655.69;;;17.54
77414;BMP280;66486;49.992;19.164;2023-09-08T07:14:57;99664.44;;;17.49
77414;BMP280;66486;49.992;19.164;2023-09-08T07:17:23;99662.97;;;17.57
77414;BMP280;66486;49.992;19.164;2023-09-08T07:19:49;99662.28;;;17.87
77414;BMP280;66486;49.992;19.164;2023-09-08T07:22:16;99661.09;;;18.19
77414;BMP280;66486;49.992;19.164;2023-09-08T07:24:42;99662.38;;;18.06
77414;BMP280;66486;49.992;19.164;2023-09-08T07:27:08;99660.22;;;18.22
77414;BMP280;66486;49.992;19.164;2023-09-08T07:29:34;99663.72;;;18.23
77414;BMP280;66486;49.992;19.164;2023-09-08T07:32:00;99658.59;;;18.34
77414;BMP280;66486;49.992;19.164;2023-09-08T07:34:26;99657.16;;;18.51
77414;BMP280;66486;49.992;19.164;2023-09-08T07:36:52;99664.09;;;18.52
77414;BMP280;66486;49.992;19.164;2023-09-08T07:39:18;99661.75;;;18.63
77414;BMP280;66486;49.992;19.164;2023-09-08T07:41:44;99659.47;;;18.70
77414;BMP280;66486;49.992;19.164;2023-09-08T07:44:12;99660.25;;;18.80
77414;BMP280;66486;49.992;19.164;2023-09-08T07:46:38;99656.03;;;18.88
77414;BMP280;66486;49.992;19.164;2023-09-08T07:49:04;99663.47;;;18.97
77414;BMP280;66486;49.992;19.164;2023-09-08T07:51:30;99659.50;;;18.98
77414;BMP280;66486;49.992;19.164;2023-09-08T07:53:56;99659.69;;;19.30
77414;BMP280;66486;49.992;19.164;2023-09-08T07:56:23;99656.59;;;19.83
77414;BMP280;66486;49.992;19.164;2023-09-08T07:58:49;99661.63;;;19.75
77414;BMP280;66486;49.992;19.164;2023-09-08T08:01:15;99648.41;;;19.74
77414;BMP280;66486;49.992;19.164;2023-09-08T08:03:41;99651.34;;;20.12
77414;BMP280;66486;49.992;19.164;2023-09-08T08:06:07;99654.25;;;19.99
77414;BMP280;66486;49.992;19.164;2023-09-08T08:08:33;99646.13;;;20.23
77414;BMP280;66486;49.992;19.164;2023-09-08T08:11:22;99646.28;;;20.19
77414;BMP280;66486;49.992;19.164;2023-09-08T08:13:48;99644.75;;;20.18
77414;BMP280;66486;49.992;19.164;2023-09-08T08:16:14;99645.44;;;20.37
77414;BMP280;66486;49.992;19.164;2023-09-08T08:18:40;99641.88;;;20.78
77414;BMP280;66486;49.992;19.164;2023-09-08T08:21:06;99641.75;;;20.96
77414;BMP280;66486;49.992;19.164;2023-09-08T08:23:32;99643.38;;;21.17
77414;BMP280;66486;49.992;19.164;2023-09-08T08:25:59;99650.56;;;21.15
77414;BMP280;66486;49.992;19.164;2023-09-08T08:28:25;99642.31;;;21.00
77414;BMP280;66486;49.992;19.164;2023-09-08T08:30:51;99643.97;;;21.36
77414;BMP280;66486;49.992;19.164;2023-09-08T08:33:18;99639.53;;;21.68
77414;BMP280;66486;49.992;19.164;2023-09-08T08:35:49;99642.41;;;21.93
77414;BMP280;66486;49.992;19.164;2023-09-08T08:38:16;99637.78;;;21.85
77414;BMP280;66486;49.992;19.164;2023-09-08T08:40:42;99641.16;;;22.09
77414;BMP280;66486;49.992;19.164;2023-09-08T08:43:08;99635.28;;;22.16
77414;BMP280;66486;49.992;19.164;2023-09-08T08:45:34;99638.59;;;22.20
77414;BMP280;66486;49.992;19.164;2023-09-08T08:48:03;99633.00;;;22.14
77414;BMP280;66486;49.992;19.164;2023-09-08T08:50:31;99638.50;;;22.49
77414;BMP280;66486;49.992;19.164;2023-09-08T08:52:58;99640.19;;;22.67
77414;BMP280;66486;49.992;19.164;2023-09-08T08:55:25;99637.16;;;23.05
77414;BMP280;66486;49.992;19.164;2023-09-08T08:57:52;99628.81;;;23.19
77414;BMP280;66486;49.992;19.164;2023-09-08T09:00:18;99639.16;;;23.10
77414;BMP280;66486;49.992;19.164;2023-09-08T09:02:45;99636.94;;;23.08
77414;BMP280;66486;49.992;19.164;2023-09-08T09:05:12;99633.00;;;23.15
77414;BMP280;66486;49.992;19.164;2023-09-08T09:07:39;99634.44;;;23.36
77414;BMP280;66486;49.992;19.164;2023-09-08T09:10:06;99621.88;;;23.61
77414;BMP280;66486;49.992;19.164;2023-09-08T09:12:33;99622.41;;;23.65
77414;BMP280;66486;49.992;19.164;2023-09-08T09:14:59;99624.94;;;23.63
77414;BMP280;66486;49.992;19.164;2023-09-08T09:17:26;99627.63;;;23.94
77414;BMP280;66486;49.992;19.164;2023-09-08T09:20:12;99624.88;;;23.88
77414;BMP280;66486;49.992;19.164;2023-09-08T09:22:39;99618.91;;;23.95
77414;BMP280;66486;49.992;19.164;2023-09-08T09:25:05;99611.66;;;23.98
77414;BMP280;66486;49.992;19.164;2023-09-08T09:27:33;99623.84;;;24.33
77414;BMP280;66486;49.992;19.164;2023-09-08T09:30:08;99616.00;;;23.79
77414;BMP280;66486;49.992;19.164;2023-09-08T09:32:34;99611.56;;;23.81
77414;BMP280;66486;49.992;19.164;2023-09-08T09:35:00;99616.19;;;24.06
77414;BMP280;66486;49.992;19.164;2023-09-08T09:37:27;99606.31;;;24.36
77414;BMP280;66486;49.992;19.164;2023-09-08T09:39:54;99609.50;;;24.13
77414;BMP280;66486;49.992;19.164;2023-09-08T09:42:21;99609.59;;;24.40
77414;BMP280;66486;49.992;19.164;2023-09-08T09:44:56;99599.59;;;24.48
77414;BMP280;66486;49.992;19.164;2023-09-08T09:47:23;99609.56;;;24.35
77414;BMP280;66486;49.992;19.164;2023-09-08T09:49:49;99598.94;;;24.70
77414;BMP280;66486;49.992;19.164;2023-09-08T09:52:23;99599.75;;;24.93
77414;BMP280;66486;49.992;19.164;2023-09-08T09:54:52;99604.00;;;24.99
77414;BMP280;66486;49.992;19.164;2023-09-08T09:57:22;99602.28;;;25.13
77414;BMP280;66486;49.992;19.164;2023-09-08T09:59:48;99608.25;;;25.44
77414;BMP280;66486;49.992;19.164;2023-09-08T10:02:17;99596.97;;;25.20
77414;BMP280;66486;49.992;19.164;2023-09-08T10:04:47;99600.28;;;25.30
77414;BMP280;66486;49.992;19.164;2023-09-08T10:07:14;99595.22;;;25.28
77414;BMP280;66486;49.992;19.164;2023-09-08T10:09:41;99603.25;;;25.37
77414;BMP280;66486;49.992;19.164;2023-09-08T10:12:08;99601.25;;;25.27
77414;BMP280;66486;49.992;19.164;2023-09-08T10:14:40;99598.75;;;25.12
77414;BMP280;66486;49.992;19.164;2023-09-08T10:17:12;99594.22;;;25.04
77414;BMP280;66486;49.992;19.164;2023-09-08T10:19:38;99591.97;;;25.41
77414;BMP280;66486;49.992;19.164;2023-09-08T10:22:11;99599.44;;;25.79
77414;BMP280;66486;49.992;19.164;2023-09-08T10:24:40;99583.91;;;25.76
77414;BMP280;66486;49.992;19.164;2023-09-08T10:27:11;99588.75;;;26.16
77414;BMP280;66486;49.992;19.164;2023-09-08T10:29:37;99588.38;;;25.85
77414;BMP280;66486;49.992;19.164;2023-09-08T10:32:06;99592.16;;;25.82
77414;BMP280;66486;49.992;19.164;2023-09-08T10:34:33;99585.31;;;26.05
77414;BMP280;66486;49.992;19.164;2023-09-08T10:37:00;99581.28;;;26.06
77414;BMP280;66486;49.992;19.164;2023-09-08T10:39:36;99586.56;;;26.04
77414;BMP280;66486;49.992;19.164;2023-09-08T10:47:19;99582.16;;;26.30
77414;BMP280;66486;49.992;19.164;2023-09-08T10:49:48;99573.50;;;26.56
77414;BMP280;66486;49.992;19.164;2023-09-08T10:52:16;99576.34;;;26.39
77414;BMP280;66486;49.992;19.164;2023-09-08T10:57:16;99572.47;;;26.18
77414;BMP280;66486;49.992;19.164;2023-09-08T10:59:57;99572.34;;;26.40
77414;BMP280;66486;49.992;19.164;2023-09-08T11:02:40;99568.06;;;26.39
77414;BMP280;66486;49.992;19.164;2023-09-08T11:05:12;99562.84;;;26.71
77414;BMP280;66486;49.992;19.164;2023-09-08T11:07:40;99557.03;;;26.80
77414;BMP280;66486;49.992;19.164;2023-09-08T11:10:07;99560.31;;;27.03
77414;BMP280;66486;49.992;19.164;2023-09-08T11:12:34;99556.94;;;26.91
77414;BMP280;66486;49.992;19.164;2023-09-08T11:15:05;99552.16;;;26.92
77414;BMP280;66486;49.992;19.164;2023-09-08T11:17:35;99558.75;;;27.13
77414;BMP280;66486;49.992;19.164;2023-09-08T11:20:02;99558.13;;;27.25
77414;BMP280;66486;49.992;19.164;2023-09-08T11:22:38;99561.25;;;27.16
77414;BMP280;66486;49.992;19.164;2023-09-08T11:25:07;99552.69;;;27.14
77414;BMP280;66486;49.992;19.164;2023-09-08T11:27:33;99560.88;;;27.01
77414;BMP280;66486;49.992;19.164;2023-09-08T11:30:00;99552.31;;;26.99
77414;BMP280;66486;49.992;19.164;2023-09-08T11:32:33;99546.97;;;27.07
77414;BMP280;66486;49.992;19.164;2023-09-08T11:35:07;99551.72;;;27.12
77414;BMP280;66486;49.992;19.164;2023-09-08T11:37:37;99541.94;;;27.35
77414;BMP280;66486;49.992;19.164;2023-09-08T11:40:04;99547.13;;;27.20
77414;BMP280;66486;49.992;19.164;2023-09-08T11:42:41;99547.34;;;27.46
77414;BMP280;66486;49.992;19.164;2023-09-08T11:45:18;99545.28;;;27.28
77414;BMP280;66486;49.992;19.164;2023-09-08T11:47:47;99541.59;;;27.20
77414;BMP280;66486;49.992;19.164;2023-09-08T11:50:15;99544.66;;;27.16
77414;BMP280;66486;49.992;19.164;2023-09-08T11:52:46;99538.19;;;27.08
77414;BMP280;66486;49.992;19.164;2023-09-08T11:55:12;99539.06;;;26.92
77414;BMP280;66486;49.992;19.164;2023-09-08T11:57:40;99527.34;;;27.10
77414;BMP280;66486;49.992;19.164;2023-09-08T12:00:07;99530.81;;;27.16
77414;BMP280;66486;49.992;19.164;2023-09-08T12:02:36;99529.03;;;27.19
77414;BMP280;66486;49.992;19.164;2023-09-08T12:05:05;99536.28;;;27.22
77414;BMP280;66486;49.992;19.164;2023-09-08T12:07:37;99530.88;;;27.35
77414;BMP280;66486;49.992;19.164;2023-09-08T12:10:08;99525.19;;;27.27
77414;BMP280;66486;49.992;19.164;2023-09-08T12:12:41;99526.22;;;27.24
77414;BMP280;66486;49.992;19.164;2023-09-08T12:15:08;99524.66;;;27.29
77414;BMP280;66486;49.992;19.164;2023-09-08T12:17:46;99530.72;;;27.51
77414;BMP280;66486;49.992;19.164;2023-09-08T12:20:14;99527.50;;;27.66
77414;BMP280;66486;49.992;19.164;2023-09-08T12:22:50;99523.78;;;27.63
77414;BMP280;66486;49.992;19.164;2023-09-08T12:25:16;99515.50;;;27.82
77414;BMP280;66486;49.992;19.164;2023-09-08T12:27:44;99523.84;;;27.76
77414;BMP280;66486;49.992;19.164;2023-09-08T12:30:16;99515.19;;;26.95
77414;BMP280;66486;49.992;19.164;2023-09-08T12:32:46;99517.97;;;26.95
77414;BMP280;66486;49.992;19.164;2023-09-08T12:35:13;99508.34;;;27.25
77414;BMP280;66486;49.992;19.164;2023-09-08T12:37:39;99502.00;;;27.30
77414;BMP280;66486;49.992;19.164;2023-09-08T12:40:05;99500.97;;;27.33
77414;BMP280;66486;49.992;19.164;2023-09-08T12:42:32;99506.50;;;27.33
77414;BMP280;66486;49.992;19.164;2023-09-08T12:44:57;99509.53;;;27.35
77414;BMP280;66486;49.992;19.164;2023-09-08T12:47:24;99501.53;;;27.50
77414;BMP280;66486;49.992;19.164;2023-09-08T12:49:49;99502.22;;;27.56
77414;BMP280;66486;49.992;19.164;2023-09-08T12:52:15;99494.41;;;27.60
77414;BMP280;66486;49.992;19.164;2023-09-08T12:54:41;99494.91;;;27.59
77414;BMP280;66486;49.992;19.164;2023-09-08T12:57:07;99489.00;;;27.86
77414;BMP280;66486;49.992;19.164;2023-09-08T12:59:33;99485.94;;;27.71
77414;BMP280;66486;49.992;19.164;2023-09-08T13:01:59;99486.84;;;27.61
77414;BMP280;66486;49.992;19.164;2023-09-08T13:04:25;99491.41;;;27.34
77414;BMP280;66486;49.992;19.164;2023-09-08T13:06:52;99479.91;;;27.06
77414;BMP280;66486;49.992;19.164;2023-09-08T13:09:18;99486.41;;;27.09
77414;BMP280;66486;49.992;19.164;2023-09-08T13:11:44;99492.81;;;26.98
77414;BMP280;66486;49.992;19.164;2023-09-08T13:14:10;99483.59;;;27.14
77414;BMP280;66486;49.992;19.164;2023-09-08T13:16:36;99484.41;;;27.09
77414;BMP280;66486;49.992;19.164;2023-09-08T13:19:02;99488.38;;;27.14
77414;BMP280;66486;49.992;19.164;2023-09-08T13:21:28;99481.91;;;26.82
77414;BMP280;66486;49.992;19.164;2023-09-08T13:23:55;99483.00;;;26.67
77414;BMP280;66486;49.992;19.164;2023-09-08T13:26:21;99479.69;;;26.80
77414;BMP280;66486;49.992;19.164;2023-09-08T13:28:47;99479.41;;;26.78
77414;BMP280;66486;49.992;19.164;2023-09-08T13:31:13;99473.28;;;26.91
77414;BMP280;66486;49.992;19.164;2023-09-08T13:33:40;99476.16;;;27.04
77414;BMP280;66486;49.992;19.164;2023-09-08T13:36:06;99475.41;;;27.03
77414;BMP280;66486;49.992;19.164;2023-09-08T13:38:33;99467.50;;;27.37
77414;BMP280;66486;49.992;19.164;2023-09-08T13:40:58;99463.53;;;27.32
77414;BMP280;66486;49.992;19.164;2023-09-08T13:43:25;99465.00;;;27.39
77414;BMP280;66486;49.992;19.164;2023-09-08T13:45:51;99462.75;;;27.13
77414;BMP280;66486;49.992;19.164;2023-09-08T13:48:17;99454.56;;;27.26
77414;BMP280;66486;49.992;19.164;2023-09-08T13:50:43;99460.38;;;27.23
77414;BMP280;66486;49.992;19.164;2023-09-08T13:53:10;99451.16;;;27.57
77414;BMP280;66486;49.992;19.164;2023-09-08T13:55:36;99457.38;;;27.63
77414;BMP280;66486;49.992;19.164;2023-09-08T13:58:03;99449.44;;;27.54
77414;BMP280;66486;49.992;19.164;2023-09-08T14:00:29;99453.78;;;27.50
77414;BMP280;66486;49.992;19.164;2023-09-08T14:02:55;99459.16;;;27.18
77414;BMP280;66486;49.992;19.164;2023-09-08T14:05:21;99446.84;;;27.19